createdAt,value
2023-08-17T00:02:21.934Z,101945.65
2023-08-17T00:04:52.183Z,101942.04
2023-08-17T00:07:22.426Z,101938.65
2023-08-17T00:09:52.728Z,101941.16
2023-08-17T00:12:23.034Z,101938.24
2023-08-17T00:14:53.312Z,101933.81
2023-08-17T00:17:23.895Z,101928.85
2023-08-17T00:19:53.948Z,101927.71
2023-08-17T00:22:24.273Z,101924.10
2023-08-17T00:24:54.582Z,101922.63
2023-08-17T00:27:25.225Z,101912.82
2023-08-17T00:29:55.239Z,101905.97
2023-08-17T00:32:25.636Z,101915.01
2023-08-17T00:34:55.985Z,101915.89
2023-08-17T00:37:26.678Z,101909.36
2023-08-17T00:39:56.610Z,101905.14
2023-08-17T00:42:26.885Z,101904.47
2023-08-17T00:44:57.162Z,101902.63
2023-08-17T00:47:27.905Z,101899.78
2023-08-17T00:49:57.847Z,101900.78
2023-08-17T00:52:28.125Z,101900.68
2023-08-17T00:54:58.400Z,101902.28
2023-08-17T00:57:28.968Z,101899.56
2023-08-17T01:00:05.273Z,101904.26
2023-08-17T01:02:29.355Z,101900.91
2023-08-17T01:04:59.714Z,101905.46
2023-08-17T01:07:30.087Z,101908.39
2023-08-17T01:10:00.273Z,101903.11
2023-08-17T01:12:30.596Z,101900.03
2023-08-17T01:15:00.886Z,101903.21
2023-08-17T01:17:31.316Z,101898.96
2023-08-17T01:20:01.522Z,101893.99
2023-08-17T01:22:31.801Z,101895.63
2023-08-17T01:25:02.109Z,101893.45
2023-08-17T01:27:32.485Z,101894.42
2023-08-17T01:30:02.728Z,101896.72
2023-08-17T01:32:33.054Z,101898.54
2023-08-17T01:35:03.350Z,101903.95
2023-08-17T01:37:33.675Z,101908.19
2023-08-17T01:40:03.987Z,101911.66
2023-08-17T01:42:34.284Z,101914.11
2023-08-17T01:45:04.560Z,101912.50
2023-08-17T01:47:35.012Z,101908.28
2023-08-17T01:50:05.196Z,101903.73
2023-08-17T01:52:35.521Z,101903.27
2023-08-17T01:55:05.816Z,101899.78
2023-08-17T01:57:36.117Z,101895.06
2023-08-17T02:00:06.407Z,101890.30
2023-08-17T02:02:36.907Z,101887.76
2023-08-17T02:05:07.043Z,101885.98
2023-08-17T02:07:37.485Z,101879.82
2023-08-17T02:10:07.823Z,101874.22
2023-08-17T02:12:38.131Z,101876.30
2023-08-17T02:15:08.360Z,101884.92
2023-08-17T02:17:38.786Z,101883.58
2023-08-17T02:20:09.019Z,101882.55
2023-08-17T02:22:39.341Z,101878.86
2023-08-17T02:25:09.733Z,101874.97
2023-08-17T02:27:40.069Z,101868.64
2023-08-17T02:30:10.386Z,101865.26
2023-08-17T02:32:40.722Z,101866.71
2023-08-17T02:35:11.113Z,101861.12
2023-08-17T02:37:41.392Z,101859.62
2023-08-17T02:40:11.749Z,101859.31
2023-08-17T02:42:42.131Z,101861.29
2023-08-17T02:45:12.594Z,101856.40
2023-08-17T02:47:42.799Z,101848.28
2023-08-17T02:50:13.127Z,101844.13
2023-08-17T02:52:43.413Z,101838.80
2023-08-17T02:55:13.851Z,101829.18
2023-08-17T02:57:44.061Z,101821.74
2023-08-17T03:00:14.506Z,101825.67
2023-08-17T03:02:44.795Z,101827.13
2023-08-17T03:05:15.146Z,101831.19
2023-08-17T03:07:45.335Z,101831.04
2023-08-17T03:10:15.672Z,101829.14
2023-08-17T03:12:45.954Z,101828.63
2023-08-17T03:15:16.381Z,101832.42
2023-08-17T03:17:46.618Z,101838.81
2023-08-17T03:20:17.006Z,101841.04
2023-08-17T03:22:47.226Z,101843.33
2023-08-17T03:25:17.555Z,101844.69
2023-08-17T03:27:47.861Z,101846.87
2023-08-17T03:30:18.185Z,101848.01
2023-08-17T03:32:48.498Z,101846.41
2023-08-17T03:35:18.858Z,101845.08
2023-08-17T03:37:49.115Z,101839.84
2023-08-17T03:40:19.489Z,101841.13
2023-08-17T03:42:49.759Z,101837.31
2023-08-17T03:45:20.104Z,101842.97
2023-08-17T03:47:50.411Z,101844.03
2023-08-17T03:50:20.711Z,101841.02
2023-08-17T03:52:50.997Z,101840.71
2023-08-17T03:55:21.425Z,101843.51
2023-08-17T03:57:51.642Z,101844.61
2023-08-17T04:00:21.950Z,101841.52
2023-08-17T04:02:52.272Z,101842.76
2023-08-17T04:05:22.601Z,101837.55
2023-08-17T04:07:52.885Z,101835.77
2023-08-17T04:10:23.271Z,101836.15
2023-08-17T04:12:53.507Z,101836.01
2023-08-17T04:15:23.945Z,101825.71
2023-08-17T04:17:54.187Z,101831.34
2023-08-17T04:20:24.459Z,101831.81
2023-08-17T04:22:55.436Z,101838.55
2023-08-17T04:25:25.657Z,101839.83
2023-08-17T04:27:55.949Z,101842.67
2023-08-17T04:30:26.272Z,101842.11
2023-08-17T04:32:56.644Z,101842.71
2023-08-17T04:35:26.956Z,101845.92
2023-08-17T04:37:57.216Z,101848.53
2023-08-17T04:40:27.589Z,101848.57
2023-08-17T04:42:57.919Z,101842.79
2023-08-17T04:45:28.195Z,101842.10
2023-08-17T04:47:58.562Z,101837.68
2023-08-17T04:50:28.895Z,101838.73
2023-08-17T04:52:59.197Z,101839.10
2023-08-17T04:55:29.559Z,101834.68
2023-08-17T04:57:59.962Z,101837.54
2023-08-17T05:00:30.256Z,101834.99
2023-08-17T05:03:00.651Z,101839.30
2023-08-17T05:05:30.961Z,101840.35
2023-08-17T05:08:01.252Z,101842.08
2023-08-17T05:10:31.622Z,101844.88
2023-08-17T05:13:02.898Z,101845.83
2023-08-17T05:15:32.323Z,101846.13
2023-08-17T05:18:02.696Z,101842.58
2023-08-17T05:20:32.983Z,101840.09
2023-08-17T05:23:03.306Z,101841.56
2023-08-17T05:25:33.737Z,101841.92
2023-08-17T05:28:04.090Z,101845.05
2023-08-17T05:30:34.328Z,101846.11
2023-08-17T05:33:04.749Z,101851.06
2023-08-17T05:35:35.023Z,101849.79
2023-08-17T05:38:05.337Z,101854.78
2023-08-17T05:40:35.686Z,101859.67
2023-08-17T05:43:06.008Z,101861.43
2023-08-17T05:45:36.336Z,101859.80
2023-08-17T05:48:06.682Z,101857.51
2023-08-17T05:50:37.023Z,101856.63
2023-08-17T05:53:07.290Z,101856.18
2023-08-17T05:55:37.618Z,101851.10
2023-08-17T05:58:07.952Z,101853.30
2023-08-17T06:00:38.359Z,101856.36
2023-08-17T06:03:08.658Z,101854.52
2023-08-17T06:05:38.949Z,101855.38
2023-08-17T06:08:09.256Z,101857.34
2023-08-17T06:10:39.714Z,101858.10
2023-08-17T06:13:09.919Z,101856.79
2023-08-17T06:15:40.252Z,101858.58
2023-08-17T06:18:10.647Z,101859.94
2023-08-17T06:20:40.904Z,101865.73
2023-08-17T06:23:11.204Z,101864.73
2023-08-17T06:25:41.535Z,101864.96
2023-08-17T06:28:11.852Z,101863.88
2023-08-17T06:30:42.241Z,101863.09
2023-08-17T06:33:12.520Z,101863.64
2023-08-17T06:35:42.860Z,101857.84
2023-08-17T06:38:13.162Z,101861.61
2023-08-17T06:40:43.511Z,101860.23
2023-08-17T06:43:15.788Z,101857.52
2023-08-17T06:45:44.161Z,101858.47
2023-08-17T06:48:14.452Z,101857.40
2023-08-17T06:50:44.816Z,101856.23
2023-08-17T06:53:15.099Z,101856.59
2023-08-17T06:55:45.429Z,101857.48
2023-08-17T06:58:15.744Z,101856.09
2023-08-17T07:00:46.095Z,101859.19
2023-08-17T07:03:16.566Z,101864.41
2023-08-17T07:05:46.766Z,101859.68
2023-08-17T07:08:17.046Z,101862.91
2023-08-17T07:10:47.368Z,101867.42
2023-08-17T07:13:17.655Z,101873.51
2023-08-17T07:15:47.975Z,101876.31
2023-08-17T07:18:18.345Z,101879.13
2023-08-17T07:20:48.608Z,101884.20
2023-08-17T07:23:18.862Z,101885.62
2023-08-17T07:25:49.162Z,101887.05
2023-08-17T07:28:19.566Z,101888.23
2023-08-17T07:30:49.785Z,101893.61
2023-08-17T07:33:20.092Z,101892.47
2023-08-17T07:35:50.393Z,101891.50
2023-08-17T07:38:21.215Z,101891.89
2023-08-17T07:40:51.524Z,101886.19
2023-08-17T07:43:21.806Z,101887.01
2023-08-17T07:45:52.263Z,101884.84
2023-08-17T07:48:22.402Z,101885.33
2023-08-17T07:50:52.735Z,101885.05
2023-08-17T07:53:23.077Z,101888.87
2023-08-17T07:55:55.439Z,101891.09
2023-08-17T07:58:23.749Z,101891.88
2023-08-17T08:00:53.995Z,101893.02
2023-08-17T08:03:24.411Z,101895.44
2023-08-17T08:05:54.639Z,101900.43
2023-08-17T08:08:24.932Z,101901.83
2023-08-17T08:10:55.248Z,101905.06
2023-08-17T08:13:25.609Z,101907.12
2023-08-17T08:15:55.907Z,101910.67
2023-08-17T08:18:26.191Z,101906.43
2023-08-17T08:20:56.549Z,101900.69
2023-08-17T08:23:26.836Z,101892.98
2023-08-17T08:25:57.220Z,101889.60
2023-08-17T08:28:27.567Z,101891.51
2023-08-17T08:30:57.852Z,101891.49
2023-08-17T08:33:28.120Z,101892.75
2023-08-17T08:35:58.472Z,101889.22
2023-08-17T08:38:28.765Z,101888.69
2023-08-17T08:40:59.101Z,101890.38
2023-08-17T08:43:29.417Z,101891.25
2023-08-17T08:45:59.821Z,101890.95
2023-08-17T08:48:30.156Z,101891.85
2023-08-17T08:51:00.424Z,101888.52
2023-08-17T08:56:01.078Z,101884.92
2023-08-17T08:58:31.449Z,101887.03
2023-08-17T09:01:02.353Z,101886.82
2023-08-17T09:03:32.602Z,101879.89
2023-08-17T09:08:33.246Z,101874.76
2023-08-17T09:11:03.588Z,101879.82
2023-08-17T09:13:33.905Z,101881.70
2023-08-17T09:18:38.617Z,101880.30
2023-08-17T09:21:04.884Z,101880.38
2023-08-17T09:23:37.491Z,101878.24
2023-08-17T09:26:06.296Z,101873.90
2023-08-17T09:28:36.376Z,101871.19
2023-08-17T09:31:06.756Z,101866.09
2023-08-17T09:33:37.054Z,101863.96
2023-08-17T09:36:07.425Z,101865.68
2023-08-17T09:38:37.706Z,101866.53
2023-08-17T09:41:08.032Z,101869.76
2023-08-17T09:43:38.402Z,101869.75
2023-08-17T09:46:08.810Z,101874.53
2023-08-17T09:48:39.065Z,101878.00
2023-08-17T09:51:09.365Z,101875.81
2023-08-17T09:53:39.694Z,101874.26
2023-08-17T09:56:10.007Z,101872.97
2023-08-17T09:58:40.306Z,101867.27
2023-08-17T10:01:10.673Z,101865.10
2023-08-17T10:03:40.957Z,101860.13
2023-08-17T10:06:11.605Z,101861.17
2023-08-17T10:08:41.674Z,101856.64
2023-08-17T10:11:11.921Z,101858.52
2023-08-17T10:13:42.241Z,101854.37
2023-08-17T10:16:13.175Z,101852.36
2023-08-17T10:18:43.802Z,101853.40
2023-08-17T10:21:14.026Z,101853.75
2023-08-17T10:23:44.332Z,101852.19
2023-08-17T10:26:14.709Z,101852.01
2023-08-17T10:28:45.139Z,101848.73
2023-08-17T10:31:15.058Z,101847.09
2023-08-17T10:33:45.351Z,101847.26
2023-08-17T10:36:15.767Z,101845.45
2023-08-17T10:38:46.013Z,101848.36
2023-08-17T10:41:18.526Z,101847.66
2023-08-17T10:43:46.960Z,101842.63
2023-08-17T10:46:17.916Z,101845.38
2023-08-17T10:48:48.192Z,101839.95
2023-08-17T10:51:18.495Z,101838.09
2023-08-17T10:53:48.790Z,101846.69
2023-08-17T10:56:19.133Z,101846.31
2023-08-17T10:58:49.448Z,101849.54
2023-08-17T11:01:22.456Z,101854.06
2023-08-17T11:03:50.643Z,101856.32
2023-08-17T11:06:21.564Z,101852.21
2023-08-17T11:08:52.456Z,101850.93
2023-08-17T11:11:22.764Z,101846.92
2023-08-17T11:13:56.722Z,101847.92
2023-08-17T11:16:23.996Z,101847.14
2023-08-17T11:18:54.826Z,101848.10
2023-08-17T11:21:25.147Z,101852.07
2023-08-17T11:23:55.711Z,101851.76
2023-08-17T11:26:25.910Z,101850.76
2023-08-17T11:28:56.196Z,101850.69
2023-08-17T11:31:26.706Z,101843.47
2023-08-17T11:33:56.567Z,101841.57
2023-08-17T11:36:26.809Z,101841.03
2023-08-17T11:38:57.081Z,101847.16
2023-08-17T11:41:27.369Z,101847.28
2023-08-17T11:43:57.683Z,101846.82
2023-08-17T11:46:29.431Z,101844.60
2023-08-17T11:48:58.516Z,101844.26
2023-08-17T11:51:28.813Z,101842.04
2023-08-17T11:53:59.710Z,101836.57
2023-08-17T11:56:30.049Z,101838.13
2023-08-17T11:59:00.280Z,101837.21
2023-08-17T12:01:31.169Z,101836.27
2023-08-17T12:04:01.456Z,101833.11
2023-08-17T12:06:32.264Z,101834.16
2023-08-17T12:09:02.485Z,101833.30
2023-08-17T12:11:32.797Z,101835.70
2023-08-17T12:14:03.656Z,101834.65
2023-08-17T12:16:33.890Z,101831.16
2023-08-17T12:19:04.168Z,101834.86
2023-08-17T12:21:34.721Z,101838.46
2023-08-17T12:24:04.933Z,101837.95
2023-08-17T12:26:35.273Z,101834.92
2023-08-17T12:29:06.045Z,101835.28
2023-08-17T12:31:36.158Z,101832.02
2023-08-17T12:34:06.337Z,101829.97
2023-08-17T12:36:36.671Z,101828.66
2023-08-17T12:39:06.670Z,101827.14
2023-08-17T12:41:36.964Z,101825.17
2023-08-17T12:44:07.233Z,101826.33
2023-08-17T12:46:37.555Z,101822.58
2023-08-17T12:49:07.955Z,101823.28
2023-08-17T12:51:38.124Z,101819.17
2023-08-17T12:54:08.934Z,101817.56
2023-08-17T12:56:39.225Z,101817.15
2023-08-17T12:59:09.793Z,101816.10
2023-08-17T13:01:40.279Z,101813.14
2023-08-17T13:04:10.562Z,101817.95
2023-08-17T13:06:49.414Z,101821.26
2023-08-17T13:09:12.358Z,101820.53
2023-08-17T13:11:41.924Z,101820.06
2023-08-17T13:14:12.192Z,101816.53
2023-08-17T13:16:43.162Z,101819.39
2023-08-17T13:19:13.421Z,101822.91
2023-08-17T13:21:43.640Z,101824.57
2023-08-17T13:24:13.850Z,101823.72
2023-08-17T13:26:46.394Z,101821.15
2023-08-17T13:29:14.703Z,101826.84
2023-08-17T13:31:45.028Z,101831.88
2023-08-17T13:34:15.256Z,101835.86
2023-08-17T13:36:45.509Z,101840.52
2023-08-17T13:39:15.746Z,101837.08
2023-08-17T13:41:46.040Z,101840.39
2023-08-17T13:44:16.554Z,101842.61
2023-08-17T13:46:46.875Z,101844.31
2023-08-17T13:49:17.117Z,101838.56
2023-08-17T13:51:47.357Z,101838.12
2023-08-17T13:54:17.595Z,101837.41
2023-08-17T13:56:47.860Z,101837.15
2023-08-17T13:59:18.147Z,101836.48
2023-08-17T14:01:48.443Z,101835.56
2023-08-17T14:04:19.232Z,101838.89
2023-08-17T14:06:49.523Z,101838.23
2023-08-17T14:09:19.779Z,101836.02
2023-08-17T14:11:50.627Z,101837.50
2023-08-17T14:14:21.438Z,101838.00
2023-08-17T14:16:51.705Z,101836.02
2023-08-17T14:19:21.920Z,101837.46
2023-08-17T14:21:52.200Z,101834.02
2023-08-17T14:24:22.466Z,101829.61
2023-08-17T14:26:53.305Z,101823.19
2023-08-17T14:29:23.556Z,101821.76
2023-08-17T14:31:56.233Z,101823.79
2023-08-17T14:34:24.633Z,101820.91
2023-08-17T14:36:55.472Z,101821.20
2023-08-17T14:39:25.744Z,101816.92
2023-08-17T14:41:55.935Z,101816.01
2023-08-17T14:44:26.181Z,101816.03
2023-08-17T14:46:56.539Z,101812.47
2023-08-17T14:49:27.373Z,101807.04
2023-08-17T14:51:56.980Z,101811.12
2023-08-17T14:54:27.179Z,101809.30
2023-08-17T14:56:57.971Z,101808.53
2023-08-17T14:59:27.696Z,101811.36
2023-08-17T15:01:58.063Z,101809.45
2023-08-17T15:04:28.231Z,101808.57
2023-08-17T15:06:58.477Z,101801.57
2023-08-17T15:09:28.695Z,101800.62
2023-08-17T15:11:58.954Z,101798.78
2023-08-17T15:14:29.766Z,101804.85
2023-08-17T15:17:00.106Z,101806.30
2023-08-17T15:19:39.736Z,101802.62
2023-08-17T15:22:00.597Z,101799.89
2023-08-17T15:24:30.845Z,101798.31
2023-08-17T15:27:01.221Z,101797.27
2023-08-17T15:29:31.378Z,101793.87
2023-08-17T15:32:01.782Z,101793.76
2023-08-17T15:34:31.895Z,101791.70
2023-08-17T15:37:02.210Z,101788.56
2023-08-17T15:39:32.366Z,101787.49
2023-08-17T15:42:02.830Z,101786.79
2023-08-17T15:44:33.538Z,101781.72
2023-08-17T15:47:03.804Z,101782.73
2023-08-17T15:49:34.122Z,101784.24
2023-08-17T15:52:06.133Z,101784.87
2023-08-17T15:54:37.024Z,101786.30
2023-08-17T15:57:04.916Z,101786.57
2023-08-17T15:59:35.153Z,101781.93
2023-08-17T16:02:05.429Z,101776.62
2023-08-17T16:04:35.764Z,101774.18
2023-08-17T16:07:06.011Z,101771.73
2023-08-17T16:09:36.274Z,101764.29
2023-08-17T16:12:06.564Z,101759.27
2023-08-17T16:14:36.801Z,101755.25
2023-08-17T16:17:07.063Z,101755.22
2023-08-17T16:19:37.310Z,101756.12
2023-08-17T16:22:07.645Z,101752.39
2023-08-17T16:24:37.766Z,101750.34
2023-08-17T16:27:08.022Z,101747.86
2023-08-17T16:29:38.259Z,101755.91
2023-08-17T16:32:09.607Z,101755.39
2023-08-17T16:34:38.818Z,101754.17
2023-08-17T16:37:09.295Z,101753.64
2023-08-17T16:39:39.391Z,101752.54
2023-08-17T16:42:09.664Z,101755.44
2023-08-17T16:44:39.925Z,101758.59
2023-08-17T16:47:10.258Z,101756.00
2023-08-17T16:49:40.509Z,101753.01
2023-08-17T16:52:10.923Z,101748.50
2023-08-17T16:54:47.025Z,101744.14
2023-08-17T16:57:11.155Z,101746.94
2023-08-17T16:59:41.404Z,101744.23
2023-08-17T17:02:14.323Z,101746.16
2023-08-17T17:04:42.089Z,101745.47
2023-08-17T17:07:12.305Z,101746.75
2023-08-17T17:09:42.461Z,101746.60
2023-08-17T17:12:12.791Z,101752.91
2023-08-17T17:14:42.992Z,101759.51
2023-08-17T17:17:13.277Z,101758.35
2023-08-17T17:19:43.530Z,101761.28
2023-08-17T17:22:14.387Z,101761.29
2023-08-17T17:24:44.629Z,101758.86
2023-08-17T17:27:14.663Z,101765.24
2023-08-17T17:29:44.976Z,101768.05
2023-08-17T17:32:15.198Z,101764.82
2023-08-17T17:34:45.514Z,101766.65
2023-08-17T17:37:15.736Z,101770.01
2023-08-17T17:39:46.064Z,101771.19
2023-08-17T17:42:16.286Z,101772.15
2023-08-17T17:44:46.547Z,101772.74
2023-08-17T17:47:16.708Z,101774.26
2023-08-17T17:49:46.853Z,101772.98
2023-08-17T17:52:17.159Z,101774.57
2023-08-17T17:54:47.408Z,101780.11
2023-08-17T17:57:17.823Z,101780.02
2023-08-17T17:59:47.968Z,101778.46
2023-08-17T18:02:18.411Z,101781.67
2023-08-17T18:04:48.279Z,101779.71
2023-08-17T18:07:18.622Z,101784.69
2023-08-17T18:09:48.583Z,101785.85
2023-08-17T18:12:18.960Z,101784.60
2023-08-17T18:14:49.164Z,101781.93
2023-08-17T18:17:19.501Z,101777.01
2023-08-17T18:19:49.823Z,101777.86
2023-08-17T18:22:20.094Z,101775.20
2023-08-17T18:24:50.369Z,101777.27
2023-08-17T18:27:20.584Z,101777.73
2023-08-17T18:29:50.852Z,101782.30
2023-08-17T18:32:21.160Z,101784.11
2023-08-17T18:34:51.422Z,101783.56
2023-08-17T18:37:21.811Z,101782.20
2023-08-17T18:39:52.010Z,101787.80
2023-08-17T18:42:22.311Z,101787.12
2023-08-17T18:44:52.584Z,101787.60
2023-08-17T18:47:22.894Z,101787.78
2023-08-17T18:49:53.226Z,101784.69
2023-08-17T18:52:24.213Z,101786.75
2023-08-17T18:54:53.855Z,101790.97
2023-08-17T18:57:24.096Z,101796.32
2023-08-17T18:59:54.404Z,101790.22
2023-08-17T19:02:24.818Z,101787.15
2023-08-17T19:04:54.907Z,101791.36
2023-08-17T19:07:25.463Z,101787.28
2023-08-17T19:09:55.503Z,101788.72
2023-08-17T19:12:25.836Z,101790.06
2023-08-17T19:14:56.060Z,101792.07
2023-08-17T19:17:26.785Z,101792.68
2023-08-17T19:19:56.713Z,101791.51
2023-08-17T19:22:27.035Z,101793.97
2023-08-17T19:24:57.256Z,101797.07
2023-08-17T19:27:27.706Z,101794.55
2023-08-17T19:29:57.910Z,101789.26
2023-08-17T19:32:28.156Z,101789.96
2023-08-17T19:34:59.074Z,101794.61
2023-08-17T19:37:31.991Z,101798.49
2023-08-17T19:39:59.550Z,101801.71
2023-08-17T19:42:29.840Z,101813.97
2023-08-17T19:45:00.128Z,101818.99
2023-08-17T19:47:30.913Z,101825.02
2023-08-17T19:50:00.715Z,101820.12
2023-08-17T19:52:31.060Z,101820.35
2023-08-17T19:55:01.204Z,101820.55
2023-08-17T19:57:31.573Z,101817.06
2023-08-17T20:00:01.780Z,101815.95
2023-08-17T20:02:32.286Z,101813.69
2023-08-17T20:05:02.331Z,101818.60
2023-08-17T20:07:32.695Z,101817.71
2023-08-17T20:10:02.903Z,101814.27
2023-08-17T20:12:33.242Z,101819.56
2023-08-17T20:15:03.427Z,101828.32
2023-08-17T20:17:33.797Z,101832.17
2023-08-17T20:20:04.019Z,101820.29
2023-08-17T20:22:34.338Z,101822.14
2023-08-17T20:25:04.566Z,101818.49
2023-08-17T20:27:34.954Z,101820.93
2023-08-17T20:30:05.195Z,101822.51
2023-08-17T20:32:35.489Z,101825.24
2023-08-17T20:35:05.514Z,101825.36
2023-08-17T20:37:35.461Z,101828.76
2023-08-17T20:40:05.838Z,101832.01
2023-08-17T20:42:36.080Z,101833.38
2023-08-17T20:45:06.333Z,101827.20
2023-08-17T20:47:36.753Z,101829.49
2023-08-17T20:50:06.928Z,101828.46
2023-08-17T20:52:37.308Z,101831.90
2023-08-17T20:55:07.527Z,101831.42
2023-08-17T20:57:37.814Z,101829.79
2023-08-17T21:00:08.115Z,101831.59
2023-08-17T21:02:38.528Z,101823.05
2023-08-17T21:05:08.811Z,101825.34
2023-08-17T21:07:39.119Z,101829.54
2023-08-17T21:10:09.894Z,101829.61
2023-08-17T21:12:40.306Z,101828.32
2023-08-17T21:15:10.491Z,101829.48
2023-08-17T21:17:40.904Z,101827.44
2023-08-17T21:20:10.829Z,101821.35
2023-08-17T21:22:41.220Z,101816.11
2023-08-17T21:25:11.408Z,101814.72
2023-08-17T21:27:41.830Z,101819.49
2023-08-17T21:30:12.579Z,101825.56
2023-08-17T21:32:42.919Z,101822.65
2023-08-17T21:35:13.819Z,101824.75
2023-08-17T21:37:44.348Z,101823.92
2023-08-17T21:40:14.300Z,101829.54
2023-08-17T21:42:44.596Z,101827.75
2023-08-17T21:45:15.442Z,101825.99
2023-08-17T21:47:45.756Z,101823.22
2023-08-17T21:50:16.100Z,101823.44
2023-08-17T21:52:46.340Z,101822.86
2023-08-17T21:55:16.602Z,101820.21
2023-08-17T21:57:46.905Z,101816.62
2023-08-17T22:00:17.184Z,101815.15
2023-08-17T22:02:48.105Z,101816.79
2023-08-17T22:05:18.330Z,101815.52
2023-08-17T22:07:48.664Z,101817.72
2023-08-17T22:10:18.908Z,101815.79
2023-08-17T22:12:49.769Z,101810.31
2023-08-17T22:15:20.105Z,101806.03
2023-08-17T22:17:50.455Z,101802.75
2023-08-17T22:20:20.728Z,101797.66
2023-08-17T22:22:50.939Z,101797.44
2023-08-17T22:25:21.231Z,101799.07
2023-08-17T22:27:51.564Z,101799.04
2023-08-17T22:30:22.378Z,101798.21
2023-08-17T22:32:52.785Z,101795.14
2023-08-17T22:35:23.009Z,101792.49
2023-08-17T22:37:53.350Z,101790.52
2023-08-17T22:40:23.639Z,101791.57
2023-08-17T22:42:54.032Z,101787.20
2023-08-17T22:45:24.301Z,101781.44
2023-08-17T22:47:55.249Z,101783.27
2023-08-17T22:50:25.536Z,101786.40
2023-08-17T22:52:55.819Z,101784.61
2023-08-17T22:55:26.090Z,101780.07
2023-08-17T22:57:56.484Z,101776.27
2023-08-17T23:00:26.737Z,101770.05
2023-08-17T23:02:57.174Z,101775.27
2023-08-17T23:05:27.379Z,101775.92
2023-08-17T23:07:57.725Z,101775.85
2023-08-17T23:10:28.028Z,101774.28
2023-08-17T23:12:58.457Z,101771.57
2023-08-17T23:15:28.671Z,101769.64
2023-08-17T23:17:59.057Z,101768.99
2023-08-17T23:20:29.353Z,101763.82
2023-08-17T23:22:59.696Z,101761.53
2023-08-17T23:25:30.613Z,101759.10
2023-08-17T23:28:00.976Z,101761.45
2023-08-17T23:30:31.320Z,101764.61
2023-08-17T23:33:01.665Z,101763.73
2023-08-17T23:35:31.986Z,101764.70
2023-08-17T23:38:02.354Z,101766.69
2023-08-17T23:40:32.301Z,101771.12
2023-08-17T23:43:02.436Z,101771.01
2023-08-17T23:45:32.721Z,101766.48
2023-08-17T23:48:03.214Z,101765.78
2023-08-17T23:50:33.384Z,101760.45
2023-08-17T23:53:03.489Z,101758.34
2023-08-17T23:55:33.864Z,101755.60
2023-08-17T23:58:04.172Z,101754.88
